Time;durP1;ratioP1;P1;durP2;ratioP2;P2;SDS_P1;SDS_P2;PMS_P1;PMS_P2;Temp;Humidity;BMP_temperature;BMP_pressure;BME280_temperature;BME280_humidity;BME280_pressure;Samples;Min_cycle;Max_cycle;Signal;HPM_P1;HPM_P2
2022/05/26 00:01:47;;;;;;;0.60;0.60;;;;;;;23.14;41.36;101076.59;5048289;28;20164;-60
2022/05/26 00:04:13;;;;;;;0.80;0.80;;;;;;;23.12;41.96;101073.06;5044587;28;20025;-60
2022/05/26 00:06:38;;;;;;;1.42;1.15;;;;;;;23.13;41.52;101085.34;5051784;28;20036;-60
2022/05/26 00:09:04;;;;;;;0.82;0.82;;;;;;;23.12;41.84;101073.94;5054817;28;20068;-60
2022/05/26 00:11:32;;;;;;;0.90;0.90;;;;;;;23.14;42.07;101076.59;5046293;28;20024;-60
2022/05/26 00:14:03;;;;;;;1.27;0.85;;;;;;;23.14;42.03;101085.31;5056344;28;20392;-63
2022/05/26 00:16:28;;;;;;;1.00;0.95;;;;;;;23.14;41.64;101087.09;5046905;28;20454;-59
2022/05/26 00:18:53;;;;;;;1.00;1.00;;;;;;;23.14;41.67;101081.84;5039745;28;20029;-59
2022/05/26 00:21:19;;;;;;;0.82;0.82;;;;;;;23.14;41.79;101079.22;5044024;28;20120;-60
2022/05/26 00:23:44;;;;;;;1.88;1.23;;;;;;;23.13;41.64;101090.59;5041078;28;20082;-61
2022/05/26 00:26:10;;;;;;;1.10;1.00;;;;;;;23.04;41.50;101073.91;5055319;28;20078;-62
2022/05/26 00:28:35;;;;;;;0.75;0.75;;;;;;;23.13;41.70;101082.72;5041486;28;20031;-59
2022/05/26 00:31:01;;;;;;;0.70;0.70;;;;;;;23.09;41.84;101063.41;5047492;28;20123;-60
2022/05/26 00:33:26;;;;;;;0.85;0.63;;;;;;;23.13;41.61;101080.09;5051143;28;20028;-60
2022/05/26 00:35:52;;;;;;;0.70;0.70;;;;;;;23.11;41.65;101081.81;5032497;28;20044;-60
2022/05/26 00:38:17;;;;;;;0.82;0.82;;;;;;;23.13;41.71;101085.34;5027567;28;20025;-61
2022/05/26 00:40:44;;;;;;;0.60;0.60;;;;;;;23.13;41.44;101086.19;5047367;28;20033;-60
2022/05/26 00:43:10;;;;;;;0.73;0.73;;;;;;;23.13;41.92;101080.09;5036096;28;20039;-61
2022/05/26 00:45:48;;;;;;;0.98;0.98;;;;;;;23.12;41.55;101083.56;5051411;28;20032;-60
2022/05/26 00:48:15;;;;;;;0.77;0.77;;;;;;;23.13;41.50;101085.34;5058103;28;20469;-60
2022/05/26 00:50:49;;;;;;;0.80;0.80;;;;;;;23.11;42.37;101081.81;5025055;28;20033;-62
2022/05/26 00:53:34;;;;;;;1.52;1.02;;;;;;;23.13;41.93;101095.84;5025653;28;20072;-61
2022/05/26 00:56:15;;;;;;;0.73;0.73;;;;;;;23.13;41.59;101080.09;5036674;28;20134;-60
2022/05/26 00:58:44;;;;;;;1.08;1.08;;;;;;;23.14;41.88;101087.94;5041227;28;20501;-62
2022/05/26 01:01:11;;;;;;;1.02;0.70;;;;;;;23.12;41.61;101080.94;5031215;28;20033;-61
2022/05/26 01:03:42;;;;;;;1.27;0.95;;;;;;;23.12;41.77;101083.56;5045256;28;20499;-60
2022/05/26 01:06:12;;;;;;;1.00;0.90;;;;;;;23.13;41.88;101080.09;5052546;28;20032;-60
2022/05/26 01:08:54;;;;;;;1.10;1.00;;;;;;;23.02;41.77;101074.75;5054171;28;20043;-60
2022/05/26 01:11:19;;;;;;;0.80;0.80;;;;;;;23.11;41.60;101081.81;5027052;28;20087;-62
2022/05/26 01:13:48;;;;;;;1.00;0.95;;;;;;;23.12;41.92;101078.31;5030570;28;20458;-60
2022/05/26 01:16:32;;;;;;;1.00;1.00;;;;;;;23.12;41.52;101078.31;5034185;28;20020;-60
2022/05/26 01:19:15;;;;;;;1.00;1.00;;;;;;;23.10;42.06;101074.81;5034123;28;20041;-60
2022/05/26 01:21:54;;;;;;;2.05;1.20;;;;;;;23.12;41.53;101078.31;5045912;28;20056;-61
2022/05/26 01:24:41;;;;;;;0.90;0.90;;;;;;;23.12;41.35;101088.84;5027379;28;20029;-61
2022/05/26 01:27:20;;;;;;;1.73;1.02;;;;;;;23.10;41.97;101074.81;5060293;28;20473;-61
2022/05/26 01:30:10;;;;;;;1.55;1.02;;;;;;;23.10;41.67;101085.31;5043539;28;20436;-60
2022/05/26 01:33:02;;;;;;;1.27;1.17;;;;;;;23.10;41.81;101074.81;5054607;28;20465;-60
2022/05/26 01:35:30;;;;;;;1.08;0.98;;;;;;;23.12;41.69;101073.06;5052790;28;20095;-63
2022/05/26 01:38:31;;;;;;;0.90;0.90;;;;;;;23.12;41.89;101080.94;5050125;28;20040;-63
2022/05/26 01:41:17;;;;;;;0.68;0.68;;;;;;;23.11;42.12;101085.31;5030885;28;20045;-61
2022/05/26 01:43:54;;;;;;;0.90;0.90;;;;;;;23.10;42.13;101082.69;5040188;28;20123;-62
2022/05/26 01:46:22;;;;;;;0.95;0.93;;;;;;;23.12;42.11;101091.47;5038838;28;20032;-61
2022/05/26 01:49:07;;;;;;;0.82;0.82;;;;;;;23.10;41.94;101087.94;5061042;28;20044;-61
2022/05/26 01:51:37;;;;;;;5.28;1.10;;;;;;;23.12;41.40;101094.09;5052481;28;20031;-62
2022/05/26 01:54:17;;;;;;;1.25;0.80;;;;;;;23.12;41.56;101088.84;5035594;28;20043;-61
2022/05/26 01:57:28;;;;;;;1.08;1.08;;;;;;;23.11;41.75;101081.81;5036515;28;20039;-62
2022/05/26 01:59:58;;;;;;;0.93;0.93;;;;;;;23.09;41.87;101073.06;5052726;28;20044;-59
2022/05/26 02:02:29;;;;;;;0.77;0.77;;;;;;;23.10;42.03;101080.06;5040213;28;20047;-59
2022/05/26 02:05:00;;;;;;;1.20;0.82;;;;;;;23.11;41.78;101087.94;5058201;28;20062;-59
2022/05/26 02:07:34;;;;;;;0.90;0.80;;;;;;;23.11;41.72;101090.56;5032864;28;20021;-60
2022/05/26 02:10:04;;;;;;;0.98;0.88;;;;;;;23.09;42.12;101086.19;5045794;28;20623;-60
2022/05/26 02:12:29;;;;;;;0.80;0.80;;;;;;;23.11;41.67;101092.34;5034311;28;20378;-60
2022/05/26 02:15:02;;;;;;;0.90;0.90;;;;;;;23.10;41.74;101085.31;5067718;28;20025;-59
2022/05/26 02:17:33;;;;;;;1.50;1.40;;;;;;;23.10;41.61;101078.31;5050392;28;20028;-61
2022/05/26 02:20:12;;;;;;;1.55;1.08;;;;;;;23.11;42.18;101084.44;5027459;28;20090;-60
2022/05/26 02:22:41;;;;;;;1.13;1.00;;;;;;;23.11;41.99;101081.81;5033242;28;20435;-60
2022/05/26 02:25:17;;;;;;;1.48;1.08;;;;;;;23.11;41.65;101087.06;5031149;28;20103;-59
2022/05/26 02:27:42;;;;;;;0.57;0.57;;;;;;;23.07;42.11;101080.91;5045294;28;20033;-60
2022/05/26 02:30:08;;;;;;;1.30;1.05;;;;;;;23.11;41.45;101081.81;5038522;28;20051;-60
2022/05/26 02:32:38;;;;;;;0.93;0.93;;;;;;;23.10;42.16;101085.31;5036780;28;20154;-60
2022/05/26 02:35:11;;;;;;;1.10;1.10;;;;;;;23.09;42.05;101078.31;5032230;28;20120;-60
2022/05/26 02:37:37;;;;;;;0.98;0.95;;;;;;;23.11;42.02;101080.06;5035918;28;20063;-60
2022/05/26 02:40:05;;;;;;;2.95;0.70;;;;;;;23.11;41.94;101081.81;5034147;28;20033;-60
2022/05/26 02:42:30;;;;;;;0.93;0.80;;;;;;;23.09;41.94;101076.53;5033056;28;20086;-61
2022/05/26 02:44:56;;;;;;;0.60;0.60;;;;;;;23.07;42.05;101090.56;5042533;28;20107;-61
2022/05/26 02:47:33;;;;;;;1.23;0.98;;;;;;;23.04;42.02;101076.53;5038305;28;20101;-60
2022/05/26 02:50:05;;;;;;;5.32;1.00;;;;;;;23.09;41.98;101094.06;5068502;28;20126;-60
2022/05/26 02:52:36;;;;;;;0.52;0.52;;;;;;;22.96;42.19;101073.00;5050015;28;20028;-60
2022/05/26 02:55:16;;;;;;;0.90;0.90;;;;;;;23.11;41.47;101102.84;5045559;28;20025;-59
2022/05/26 02:58:16;;;;;;;0.80;0.80;;;;;;;23.10;42.19;101085.31;5040607;28;20036;-62
2022/05/26 03:00:58;;;;;;;0.80;0.80;;;;;;;23.10;42.27;101082.69;5064735;28;20078;-60
2022/05/26 03:03:33;;;;;;;1.70;1.13;;;;;;;23.10;42.17;101095.84;5034088;28;20017;-60
2022/05/26 03:06:06;;;;;;;0.70;0.70;;;;;;;23.09;41.88;101094.06;5035641;28;20032;-66
2022/05/26 03:08:36;;;;;;;0.75;0.75;;;;;;;23.07;41.81;101093.19;5035908;28;20040;-61
2022/05/26 03:11:08;;;;;;;0.77;0.77;;;;;;;23.08;41.93;101098.44;5031803;28;20024;-60
2022/05/26 03:13:34;;;;;;;1.75;0.80;;;;;;;23.09;41.92;101094.06;5041331;28;20080;-60
2022/05/26 03:15:59;;;;;;;1.17;0.93;;;;;;;23.09;41.68;101104.59;5054326;28;20024;-58
2022/05/26 03:18:25;;;;;;;1.27;1.17;;;;;;;23.09;41.62;101115.09;5031688;28;20042;-60
2022/05/26 03:20:50;;;;;;;0.82;0.82;;;;;;;23.10;41.99;101108.97;5043264;28;20032;-59
2022/05/26 03:23:15;;;;;;;0.70;0.70;;;;;;;23.09;41.80;101115.94;5046599;28;20066;-59
2022/05/26 03:25:45;;;;;;;1.10;0.98;;;;;;;23.08;42.37;101114.19;5044729;28;20125;-63
2022/05/26 03:28:14;;;;;;;1.30;1.08;;;;;;;23.07;42.13;101106.31;5047317;28;20028;-62
2022/05/26 03:30:42;;;;;;;1.42;1.10;;;;;;;23.07;42.02;101109.81;5022983;28;20119;-60
2022/05/26 03:33:07;;;;;;;1.25;0.95;;;;;;;23.08;42.17;101108.06;5035913;28;20120;-59
2022/05/26 03:41:03;;;;;;;0.70;0.70;;;;;;;23.09;41.91;101104.59;5051612;28;20553;-59
2022/05/26 03:43:34;;;;;;;0.90;0.90;;;;;;;23.09;42.24;101115.09;5056043;28;20028;-60
2022/05/26 03:46:00;;;;;;;2.33;0.90;;;;;;;23.10;41.85;101111.59;5052258;28;20029;-61
2022/05/26 03:48:29;;;;;;;1.00;0.80;;;;;;;23.09;42.01;101109.84;5037873;28;20023;-60
2022/05/26 03:50:55;;;;;;;0.70;0.70;;;;;;;23.10;42.38;101114.22;5045345;28;20481;-60
2022/05/26 03:53:20;;;;;;;0.75;0.75;;;;;;;23.09;41.85;101112.47;5026912;28;20225;-60
2022/05/26 03:55:46;;;;;;;1.30;0.85;;;;;;;23.09;41.79;101112.47;5066865;28;20488;-60
2022/05/26 03:58:11;;;;;;;1.08;0.98;;;;;;;23.10;41.86;101120.34;5032030;28;20020;-60
2022/05/26 04:00:37;;;;;;;0.75;0.75;;;;;;;23.10;41.80;101119.47;5056170;28;20397;-60
2022/05/26 04:03:03;;;;;;;0.60;0.60;;;;;;;23.10;42.34;101116.84;5032203;28;20422;-60
2022/05/26 04:05:28;;;;;;;0.80;0.80;;;;;;;23.08;41.87;101122.06;5048751;28;20122;-60
2022/05/26 04:07:54;;;;;;;1.10;0.93;;;;;;;23.10;41.80;101122.09;5030672;28;20143;-64
2022/05/26 04:10:19;;;;;;;0.60;0.60;;;;;;;23.09;42.28;101136.97;5032520;28;20061;-60
2022/05/26 04:12:46;;;;;;;0.90;0.90;;;;;;;23.08;42.06;101129.97;5042714;28;20040;-60
2022/05/26 04:15:13;;;;;;;0.85;0.85;;;;;;;23.08;42.03;101134.34;5036837;28;20074;-61
2022/05/26 04:17:39;;;;;;;3.00;1.15;;;;;;;23.09;42.28;101138.72;5035839;28;20040;-63
2022/05/26 04:20:06;;;;;;;1.40;0.90;;;;;;;23.11;42.10;101129.13;5031607;28;20154;-60
2022/05/26 04:22:32;;;;;;;0.80;0.80;;;;;;;23.09;42.13;101120.34;5031993;28;20095;-59
2022/05/26 04:24:58;;;;;;;1.52;1.30;;;;;;;23.11;41.94;101144.88;5072868;28;20425;-59
2022/05/26 04:27:27;;;;;;;3.42;1.25;;;;;;;23.07;41.80;101137.84;5038100;28;20059;-59
2022/05/26 04:29:53;;;;;;;6.53;1.23;;;;;;;23.04;41.76;101123.81;5029248;28;20544;-63
2022/05/26 04:32:21;;;;;;;4.32;0.82;;;;;;;23.09;42.17;101136.97;5023724;28;20119;-62
2022/05/26 04:34:48;;;;;;;1.35;0.70;;;;;;;23.10;42.17;101143.13;5035613;28;20362;-59
2022/05/26 04:37:21;;;;;;;0.80;0.80;;;;;;;23.07;42.35;101127.34;5032095;28;20039;-60
2022/05/26 04:39:47;;;;;;;0.90;0.90;;;;;;;23.07;42.08;101130.81;5036073;28;20082;-61
2022/05/26 04:42:12;;;;;;;0.60;0.60;;;;;;;23.10;41.93;101124.72;5035608;28;20489;-60
2022/05/26 04:44:40;;;;;;;1.40;1.00;;;;;;;23.10;42.22;101137.88;5024174;28;20029;-60
2022/05/26 04:47:06;;;;;;;0.80;0.80;;;;;;;23.10;42.21;101137.88;5035342;28;20044;-60
2022/05/26 04:49:32;;;;;;;0.75;0.75;;;;;;;23.10;41.88;101148.38;5054493;28;20032;-61
2022/05/26 04:51:57;;;;;;;1.55;0.88;;;;;;;23.11;42.11;101158.00;5047076;28;20032;-60
2022/05/26 04:54:23;;;;;;;0.90;0.90;;;;;;;23.11;42.16;101164.13;5046643;28;20040;-65
2022/05/26 04:56:51;;;;;;;1.02;1.00;;;;;;;23.10;42.16;101167.63;5039436;28;20037;-61
2022/05/26 04:59:16;;;;;;;1.30;1.20;;;;;;;23.10;41.66;101169.38;5027102;28;20437;-61
2022/05/26 05:01:42;;;;;;;1.40;1.15;;;;;;;23.11;42.13;101171.16;5046952;28;20036;-61
2022/05/26 05:04:07;;;;;;;1.02;1.02;;;;;;;23.09;42.59;101172.88;5026496;28;20090;-61
2022/05/26 05:06:33;;;;;;;0.90;0.90;;;;;;;23.11;42.11;101168.53;5049255;28;20020;-63
2022/05/26 05:08:58;;;;;;;1.35;0.90;;;;;;;23.09;42.47;101178.13;5047273;28;20033;-60
2022/05/26 05:11:24;;;;;;;1.25;1.15;;;;;;;23.11;42.03;101184.28;5038176;28;20032;-61
2022/05/26 05:13:50;;;;;;;0.80;0.80;;;;;;;23.04;41.93;101181.63;5039225;28;20545;-61
2022/05/26 05:16:23;;;;;;;1.63;1.13;;;;;;;23.04;42.21;101185.97;5044106;28;20038;-63
2022/05/26 05:18:50;;;;;;;1.27;1.17;;;;;;;23.10;42.28;101195.66;5065690;28;20138;-61
2022/05/26 05:21:19;;;;;;;0.93;0.93;;;;;;;23.10;42.22;101190.41;5094218;22;20040;-53
2022/05/26 05:23:48;;;;;;;1.13;0.90;;;;;;;23.13;42.04;101190.41;5072601;28;20062;-53
2022/05/26 05:26:15;;;;;;;0.95;0.95;;;;;;;23.12;42.11;101194.78;5090909;28;20027;-52
2022/05/26 05:28:45;;;;;;;1.20;1.10;;;;;;;23.13;41.89;101200.94;5073384;28;20032;-53
2022/05/26 05:31:14;;;;;;;0.98;0.98;;;;;;;23.13;41.89;101195.69;5085139;28;20495;-49
2022/05/26 05:33:50;;;;;;;1.60;0.90;;;;;;;23.13;42.42;101190.41;5066212;28;20028;-51
2022/05/26 05:36:19;;;;;;;1.27;1.17;;;;;;;23.14;42.56;101202.69;5085783;28;20365;-48
2022/05/26 05:38:47;;;;;;;1.08;1.00;;;;;;;23.14;41.89;101198.28;5071284;28;20075;-49
2022/05/26 05:41:12;;;;;;;4.40;1.08;;;;;;;23.14;42.19;101193.03;5072366;28;20112;-54
2022/05/26 05:43:38;;;;;;;0.90;0.90;;;;;;;23.16;42.29;101198.31;5066540;28;20435;-50
2022/05/26 05:46:06;;;;;;;0.90;0.90;;;;;;;23.17;42.14;101192.19;5079811;28;20101;-53
2022/05/26 05:48:31;;;;;;;4.00;1.10;;;;;;;23.18;41.82;101199.22;5057349;28;20464;-52
2022/05/26 05:50:56;;;;;;;3.38;1.13;;;;;;;23.18;41.96;101193.94;5054612;28;20039;-54
2022/05/26 05:53:22;;;;;;;1.25;1.15;;;;;;;23.18;42.42;101201.84;5053753;28;20028;-51
2022/05/26 05:55:47;;;;;;;0.90;0.90;;;;;;;23.18;42.43;101209.72;5067794;28;20058;-52
2022/05/26 05:58:13;;;;;;;1.40;1.23;;;;;;;23.18;42.33;101214.97;5056601;28;20028;-53
2022/05/26 06:00:40;;;;;;;1.88;1.15;;;;;;;23.17;42.03;101215.84;5064815;28;20063;-52
2022/05/26 06:03:05;;;;;;;0.90;0.90;;;;;;;23.18;41.54;101212.34;5053083;28;20106;-51
2022/05/26 06:05:31;;;;;;;1.00;1.00;;;;;;;23.20;42.06;101207.97;5059885;28;20553;-52
2022/05/26 06:07:57;;;;;;;0.80;0.80;;;;;;;23.19;41.93;101216.72;5051450;28;20024;-51
2022/05/26 06:10:22;;;;;;;1.33;0.98;;;;;;;23.20;42.38;101215.88;5051264;28;20081;-53
2022/05/26 06:12:48;;;;;;;1.55;1.08;;;;;;;23.21;42.48;101215.00;5073769;28;20136;-47
2022/05/26 06:15:13;;;;;;;1.33;1.23;;;;;;;23.21;42.17;101225.50;5071323;28;20032;-45
2022/05/26 06:17:39;;;;;;;1.02;1.00;;;;;;;23.19;42.02;101227.25;5073051;28;20024;-53
2022/05/26 06:20:05;;;;;;;0.80;0.80;;;;;;;23.20;42.50;101234.25;5072695;28;20148;-51
2022/05/26 06:22:32;;;;;;;0.82;0.82;;;;;;;23.19;42.14;101232.50;5073823;28;20029;-51
2022/05/26 06:24:57;;;;;;;0.98;0.88;;;;;;;23.20;42.10;101248.25;5071125;28;20468;-51
2022/05/26 06:30:10;;;;;;;1.10;1.10;;;;;;;23.18;42.05;101246.50;5069405;28;20147;-51
2022/05/26 06:38:36;;;;;;;0.82;0.82;;;;;;;23.18;42.37;101249.13;5069166;28;20039;-47
2022/05/26 06:42:05;;;;;;;1.50;1.13;;;;;;;23.17;42.17;101250.00;5065981;28;20115;-53
2022/05/26 06:43:47;;;;;;;1.13;0.80;;;;;;;23.17;42.11;101250.00;5070447;28;20047;-49
2022/05/26 06:46:13;;;;;;;2.47;1.10;;;;;;;23.13;41.89;101258.72;5067982;28;20043;-50
2022/05/26 06:48:38;;;;;;;1.38;1.27;;;;;;;23.16;42.07;101264.00;5070798;28;20034;-52
2022/05/26 06:51:07;;;;;;;4.90;1.25;;;;;;;23.16;42.42;101264.88;5057707;28;20080;-50
2022/05/26 06:53:33;;;;;;;2.90;1.00;;;;;;;23.16;42.21;101264.00;5074018;28;20020;-53
2022/05/26 06:55:59;;;;;;;2.25;1.13;;;;;;;23.17;42.09;101268.38;5069005;28;20036;-50
2022/05/26 06:58:26;;;;;;;2.92;1.27;;;;;;;23.17;41.97;101268.38;5066582;28;20042;-48
2022/05/26 07:00:52;;;;;;;1.23;1.13;;;;;;;23.19;42.00;101274.53;5077904;28;20047;-51
2022/05/26 07:03:18;;;;;;;0.93;0.93;;;;;;;23.17;42.42;101271.03;5076439;28;20150;-48
2022/05/26 07:05:43;;;;;;;1.88;1.40;;;;;;;23.19;41.99;101269.28;5052054;28;20034;-54
2022/05/26 07:08:09;;;;;;;0.85;0.85;;;;;;;23.19;42.37;101266.66;5073904;28;20424;-51
2022/05/26 07:10:34;;;;;;;1.90;1.40;;;;;;;23.17;42.26;101276.28;5078026;28;20434;-54
2022/05/26 07:13:00;;;;;;;1.48;1.05;;;;;;;23.20;42.38;101286.81;5054419;28;20033;-47
2022/05/26 07:15:26;;;;;;;1.38;1.27;;;;;;;23.22;42.29;101300.84;5075014;28;20430;-49
2022/05/26 07:17:51;;;;;;;3.00;1.40;;;;;;;23.19;41.67;101292.94;5070356;28;20028;-47
2022/05/26 07:20:16;;;;;;;4.13;1.67;;;;;;;23.13;41.72;101306.03;5052154;28;20380;-50
2022/05/26 07:22:42;;;;;;;4.03;2.20;;;;;;;23.02;41.17;101306.81;5053328;28;20127;-51
2022/05/26 07:25:11;;;;;;;2.63;2.42;;;;;;;22.91;41.09;101305.84;5073191;28;20032;-51
2022/05/26 07:28:00;;;;;;;2.65;1.75;;;;;;;22.79;40.66;101316.22;5076435;28;20039;-53
2022/05/26 07:30:29;;;;;;;2.50;1.85;;;;;;;22.76;40.80;101317.94;5048662;28;20024;-53
2022/05/26 07:33:08;;;;;;;1.98;1.42;;;;;;;22.75;39.98;101310.06;5069388;28;20027;-48
2022/05/26 07:35:37;;;;;;;2.53;1.27;;;;;;;22.71;38.75;101321.41;5060058;28;20039;-53
2022/05/26 07:41:16;;;;;;;2.53;2.08;;;;;;;22.45;38.25;101316.78;5080519;28;20039;-52
2022/05/26 07:43:52;;;;;;;2.00;1.40;;;;;;;22.34;37.51;101311.38;5089277;28;20531;-49
2022/05/26 07:46:23;;;;;;;1.45;1.35;;;;;;;22.38;38.39;101317.56;5056886;28;20033;-50
2022/05/26 07:48:52;;;;;;;1.75;1.20;;;;;;;22.45;37.71;101320.28;5069242;28;20035;-52
2022/05/26 07:51:21;;;;;;;1.98;1.40;;;;;;;22.53;37.63;101324.72;5059989;28;20029;-46
2022/05/26 07:53:47;;;;;;;3.13;1.23;;;;;;;22.56;37.30;101320.41;5075312;28;20075;-49
2022/05/26 07:56:15;;;;;;;5.30;1.85;;;;;;;22.56;37.48;101336.16;5071759;28;20103;-49
2022/05/26 07:58:40;;;;;;;3.60;1.90;;;;;;;22.61;37.40;101344.06;5075910;28;20495;-52
2022/05/26 08:01:07;;;;;;;5.97;1.50;;;;;;;22.53;36.23;101345.72;5072333;28;20036;-50
2022/05/26 08:03:33;;;;;;;9.73;1.65;;;;;;;22.55;37.08;101344.00;5074369;28;20039;-54
2022/05/26 08:05:58;;;;;;;1.42;1.33;;;;;;;22.45;36.20;101343.91;5073995;28;20032;-49
2022/05/26 08:08:26;;;;;;;1.75;1.25;;;;;;;22.40;36.04;101340.31;5090853;28;20088;-52
2022/05/26 08:10:52;;;;;;;2.00;1.42;;;;;;;22.40;36.71;101345.56;5074346;28;20043;-54
2022/05/26 08:13:17;;;;;;;8.35;1.10;;;;;;;22.37;35.55;101356.03;5076334;28;20408;-53
2022/05/26 08:15:43;;;;;;;1.90;1.77;;;;;;;22.33;36.33;101338.47;5058252;28;20043;-49
2022/05/26 08:18:08;;;;;;;1.85;1.13;;;;;;;22.45;36.81;101343.91;5086217;28;20032;-50
2022/05/26 08:20:34;;;;;;;1.70;1.60;;;;;;;22.59;36.45;101348.41;5072794;28;20032;-50
2022/05/26 08:23:00;;;;;;;4.88;1.27;;;;;;;22.68;35.92;101353.75;5069312;28;20085;-53
2022/05/26 08:25:26;;;;;;;1.35;0.90;;;;;;;22.77;37.20;101353.84;5072625;28;20440;-49
2022/05/26 08:27:52;;;;;;;0.80;0.80;;;;;;;22.84;37.22;101351.31;5092192;28;20028;-54
2022/05/26 08:30:18;;;;;;;3.45;1.33;;;;;;;22.89;37.42;101360.13;5077021;28;20496;-47
2022/05/26 08:32:44;;;;;;;3.83;1.67;;;;;;;22.94;37.67;101368.03;5073460;28;20043;-49
2022/05/26 08:35:10;;;;;;;1.83;1.13;;;;;;;22.96;37.31;101367.19;5074117;28;20107;-48
2022/05/26 08:37:36;;;;;;;0.75;0.75;;;;;;;22.97;36.86;101374.19;5064895;28;20119;-49
2022/05/26 08:40:01;;;;;;;1.42;1.33;;;;;;;22.99;36.87;101367.22;5072635;28;20131;-53
2022/05/26 08:42:31;;;;;;;2.60;1.48;;;;;;;22.99;37.38;101371.56;5057683;28;20089;-49
2022/05/26 08:45:00;;;;;;;7.50;1.17;;;;;;;23.02;37.11;101372.50;5072536;28;20055;-45
2022/05/26 08:47:34;;;;;;;0.80;0.80;;;;;;;23.00;37.14;101384.72;5058627;28;20024;-46
2022/05/26 08:50:10;;;;;;;7.35;1.38;;;;;;;23.03;37.47;101384.75;5057365;28;20073;-49
2022/05/26 08:52:46;;;;;;;0.70;0.70;;;;;;;22.95;37.16;101375.94;5071365;28;20039;-49
2022/05/26 08:55:17;;;;;;;1.10;1.00;;;;;;;23.04;37.32;101391.78;5067700;28;20031;-50
2022/05/26 08:57:44;;;;;;;1.40;1.23;;;;;;;23.04;37.67;101394.41;5062486;28;20096;-49
2022/05/26 09:00:17;;;;;;;4.20;1.58;;;;;;;23.04;37.78;101394.41;5084480;28;20062;-48
2022/05/26 09:02:43;;;;;;;4.72;1.13;;;;;;;23.05;37.53;101397.91;5049301;28;20109;-47
2022/05/26 09:05:20;;;;;;;2.17;1.23;;;;;;;23.07;37.97;101390.03;5056213;28;20032;-48
2022/05/26 09:14:02;;;;;;;1.58;1.23;;;;;;;23.10;37.78;101416.34;5083737;28;20043;-46
2022/05/26 09:16:32;;;;;;;2.38;0.88;;;;;;;23.10;38.01;101405.84;5072755;28;20036;-46
2022/05/26 09:19:15;;;;;;;1.75;1.10;;;;;;;23.11;37.77;101418.09;5057587;28;20122;-50
2022/05/26 09:21:40;;;;;;;1.10;1.10;;;;;;;23.12;37.93;101419.88;5089976;28;20043;-52
2022/05/26 09:24:19;;;;;;;3.03;1.02;;;;;;;23.13;38.24;101416.38;5068307;28;20035;-48
2022/05/26 09:27:01;;;;;;;0.80;0.80;;;;;;;23.14;38.21;101423.38;5083610;28;20389;-48
2022/05/26 09:29:30;;;;;;;1.05;0.95;;;;;;;23.14;37.89;101436.53;5064638;28;20488;-48
2022/05/26 09:31:57;;;;;;;1.20;1.10;;;;;;;23.13;38.31;101429.50;5073412;28;20115;-48
2022/05/26 09:34:25;;;;;;;5.13;1.25;;;;;;;23.14;38.16;101434.75;5054648;28;20032;-51
2022/05/26 09:36:59;;;;;;;1.33;1.23;;;;;;;23.14;37.74;101441.78;5080770;28;20040;-51
2022/05/26 09:39:34;;;;;;;0.70;0.70;;;;;;;23.16;38.09;101443.53;5067651;28;20107;-53
2022/05/26 09:42:00;;;;;;;;;;;;;;;23.16;37.97;101438.28;5072121;28;20066;-49
2022/05/26 09:44:33;;;;;;;1.20;0.80;;;;;;;23.15;38.10;101438.28;5069986;28;19995;-50
2022/05/26 09:47:02;;;;;;;2.63;1.10;;;;;;;23.16;38.20;101432.16;5064742;28;20040;-47
2022/05/26 09:49:34;;;;;;;0.73;0.73;;;;;;;23.17;38.25;101444.44;5053030;28;20123;-48
2022/05/26 09:52:15;;;;;;;1.17;1.13;;;;;;;23.19;37.95;101442.69;5072882;28;20046;-51
2022/05/26 09:54:41;;;;;;;0.90;0.90;;;;;;;23.17;38.41;101444.44;5058431;28;20105;-50
2022/05/26 09:57:15;;;;;;;0.60;0.60;;;;;;;23.18;37.91;101457.56;5057725;28;20024;-49
2022/05/26 09:59:42;;;;;;;;;;;;;;;23.18;38.20;101451.44;5071298;28;20036;-48
2022/05/26 10:02:34;;;;;;;0.55;0.55;;;;;;;23.19;38.41;101454.06;5043348;28;19919;-48
2022/05/26 10:05:05;;;;;;;0.90;0.90;;;;;;;23.21;38.07;101462.00;5068103;28;20068;-51
2022/05/26 10:07:46;;;;;;;1.02;1.02;;;;;;;23.22;38.07;101458.50;5050259;28;20115;-54
2022/05/26 10:10:21;;;;;;;1.40;1.02;;;;;;;23.22;38.61;101452.34;5091967;28;20047;-52
2022/05/26 10:13:09;;;;;;;0.60;0.60;;;;;;;23.20;38.27;101449.72;5069639;28;20158;-50
2022/05/26 10:15:53;;;;;;;1.02;0.88;;;;;;;23.24;38.18;101464.69;5065955;28;20389;-46
2022/05/26 10:18:56;;;;;;;0.70;0.70;;;;;;;23.23;38.07;101462.88;5087550;28;20059;-47
2022/05/26 10:21:48;;;;;;;1.10;1.00;;;;;;;23.16;38.51;101442.69;5089042;28;20362;-54
2022/05/26 10:24:41;;;;;;;0.90;0.90;;;;;;;23.22;38.24;101463.75;5091195;28;20393;-49
2022/05/26 10:27:23;;;;;;;1.10;0.82;;;;;;;23.22;38.73;101447.09;5065601;28;20039;-48
2022/05/26 10:30:13;;;;;;;1.20;1.10;;;;;;;23.26;38.29;101444.56;5082197;28;20079;-48
2022/05/26 10:33:00;;;;;;;4.20;1.10;;;;;;;23.26;38.29;101454.16;5070221;28;20031;-50
2022/05/26 10:35:29;;;;;;;1.30;1.20;;;;;;;23.27;38.62;101464.72;5061147;28;20046;-51
2022/05/26 10:38:01;;;;;;;0.80;0.80;;;;;;;23.26;38.93;101455.06;5061552;28;20036;-50
2022/05/26 10:40:34;;;;;;;2.28;1.48;;;;;;;23.21;38.81;101451.47;5067758;28;20055;-53
2022/05/26 10:43:20;;;;;;;3.05;1.27;;;;;;;23.24;38.54;101448.91;5065756;28;20137;-50
2022/05/26 10:45:51;;;;;;;0.75;0.73;;;;;;;23.29;38.46;101454.19;5071870;28;20039;-52
2022/05/26 10:48:32;;;;;;;1.42;1.33;;;;;;;23.28;38.79;101432.31;5084428;28;20039;-48
2022/05/26 10:51:05;;;;;;;2.63;1.30;;;;;;;23.31;38.66;101471.75;5069845;28;20123;-46
2022/05/26 10:53:49;;;;;;;2.30;1.10;;;;;;;23.30;38.72;101456.84;5050762;28;20059;-48
2022/05/26 10:56:31;;;;;;;1.45;0.98;;;;;;;23.29;38.52;101470.88;5044180;28;20115;-50
2022/05/26 10:59:13;;;;;;;1.10;0.95;;;;;;;23.28;38.90;101458.59;5072574;28;20044;-51
2022/05/26 11:02:17;;;;;;;3.22;1.23;;;;;;;23.27;38.72;101467.34;5061670;28;20028;-48
2022/05/26 11:05:06;;;;;;;0.90;0.90;;;;;;;23.29;38.69;101460.34;5074691;28;20495;-54
2022/05/26 11:07:34;;;;;;;2.55;1.23;;;;;;;23.29;38.72;101465.59;5047940;28;20060;-46
2022/05/26 11:10:06;;;;;;;4.28;1.05;;;;;;;23.28;38.45;101469.09;5061664;28;20062;-50
2022/05/26 11:12:33;;;;;;;5.55;1.02;;;;;;;23.29;39.03;101467.34;5089597;28;20024;-52
2022/05/26 11:18:04;;;;;;;1.35;0.88;;;;;;;23.27;38.70;101456.81;5042311;28;20102;-49
2022/05/26 11:20:41;;;;;;;1.05;0.93;;;;;;;23.32;38.87;101465.63;5065819;28;20028;-54
2022/05/26 11:23:10;;;;;;;0.90;0.90;;;;;;;23.31;39.44;101463.88;5069293;28;20083;-53
2022/05/26 11:25:43;;;;;;;2.55;1.45;;;;;;;23.29;39.03;101470.88;5063449;23;20044;-65
2022/05/26 11:28:34;;;;;;;3.92;1.30;;;;;;;23.26;38.59;101460.31;5031095;28;20032;-64
2022/05/26 11:36:52;;;;;;;1.85;1.15;;;;;;;23.31;38.93;101479.66;5035984;28;20086;-64
2022/05/26 11:39:22;;;;;;;4.10;0.98;;;;;;;23.19;38.33;101447.97;5048423;28;20028;-63
2022/05/26 11:42:01;;;;;;;1.73;1.05;;;;;;;23.38;39.14;101474.44;5036796;28;20037;-64
2022/05/26 11:44:44;;;;;;;1.92;1.25;;;;;;;23.40;38.77;101483.22;5032900;28;20043;-64
2022/05/26 11:47:21;;;;;;;1.00;0.95;;;;;;;23.38;39.09;101484.97;5033587;28;20033;-64
2022/05/26 11:49:48;;;;;;;2.13;1.23;;;;;;;23.38;38.86;101496.38;5039642;28;20241;-64
2022/05/26 11:52:23;;;;;;;0.98;0.90;;;;;;;22.16;35.54;101470.34;5046826;28;20147;-65
2022/05/26 11:54:55;;;;;;;2.33;1.38;;;;;;;21.79;35.65;101493.38;5052085;28;20512;-63
2022/05/26 11:57:33;;;;;;;1.23;0.98;;;;;;;21.73;35.88;101482.75;5068843;28;20105;-66
2022/05/26 12:00:14;;;;;;;6.38;1.20;;;;;;;21.25;35.40;101427.78;5045270;28;20041;-64
2022/05/26 12:02:39;;;;;;;6.60;1.27;;;;;;;22.01;36.50;101493.72;5044524;28;20032;-66
2022/05/26 12:05:29;;;;;;;1.20;1.00;;;;;;;22.39;37.15;101496.00;5052013;28;20028;-63
2022/05/26 12:07:56;;;;;;;1.10;1.00;;;;;;;22.67;37.17;101493.78;5064179;28;20082;-64
2022/05/26 12:10:25;;;;;;;1.27;1.17;;;;;;;22.86;36.75;101494.03;5030861;28;20060;-65
2022/05/26 12:13:19;;;;;;;2.72;1.40;;;;;;;22.82;35.11;101505.34;5046841;28;20035;-67
2022/05/26 12:16:03;;;;;;;5.95;1.10;;;;;;;22.08;34.74;101490.31;5071668;28;20119;-70
2022/05/26 12:18:46;;;;;;;1.13;1.02;;;;;;;21.76;34.68;101493.34;5074324;28;20082;-68